createdAt,value
2024-02-28T00:01:17.884Z,89.13
2024-02-28T00:03:45.523Z,89.06
2024-02-28T00:06:12.191Z,88.89
2024-02-28T00:08:38.753Z,89.29
2024-02-28T00:11:05.579Z,89.20
2024-02-28T00:13:32.179Z,89.32
2024-02-28T00:15:58.781Z,89.36
2024-02-28T00:18:25.357Z,89.72
2024-02-28T00:20:51.922Z,90.37
2024-02-28T00:23:18.442Z,89.82
2024-02-28T00:25:45.095Z,89.85
2024-02-28T00:28:11.605Z,89.97
2024-02-28T00:30:38.396Z,90.33
2024-02-28T00:33:05.131Z,90.16
2024-02-28T00:35:34.377Z,90.85
2024-02-28T00:38:01.751Z,90.50
2024-02-28T00:40:29.488Z,90.46
2024-02-28T00:42:56.372Z,90.58
2024-02-28T00:45:22.882Z,90.26
2024-02-28T00:47:49.492Z,90.60
2024-02-28T00:50:16.179Z,90.71
2024-02-28T00:52:42.716Z,90.24
2024-02-28T00:55:09.275Z,89.89
2024-02-28T00:57:36.477Z,90.27
2024-02-28T01:00:03.208Z,90.57
2024-02-28T01:02:29.741Z,90.81
2024-02-28T01:04:56.235Z,90.66
2024-02-28T01:07:22.748Z,91.31
2024-02-28T01:09:49.357Z,90.59
2024-02-28T01:12:15.953Z,90.36
2024-02-28T01:14:42.528Z,90.83
2024-02-28T01:17:09.051Z,90.31
2024-02-28T01:19:36.072Z,90.48
2024-02-28T01:22:02.774Z,90.81
2024-02-28T01:24:29.304Z,90.97
2024-02-28T01:26:56.033Z,90.41
2024-02-28T01:29:22.713Z,90.79
2024-02-28T01:31:49.214Z,90.84
2024-02-28T01:34:15.770Z,90.88
2024-02-28T01:36:42.374Z,90.95
2024-02-28T01:39:09.444Z,90.58
2024-02-28T01:41:36.068Z,90.29
2024-02-28T01:44:02.730Z,90.06
2024-02-28T01:46:30.309Z,90.58
2024-02-28T01:48:58.279Z,90.47
2024-02-28T01:51:28.175Z,90.65
2024-02-28T01:53:55.326Z,90.50
2024-02-28T01:56:24.171Z,90.69
2024-02-28T01:58:51.172Z,90.53
2024-02-28T02:01:18.646Z,90.42
2024-02-28T02:03:51.316Z,90.40
2024-02-28T02:06:17.981Z,90.11
2024-02-28T02:08:44.797Z,90.43
2024-02-28T02:11:11.358Z,90.15
2024-02-28T02:13:56.965Z,90.61
2024-02-28T02:16:23.774Z,89.76
2024-02-28T02:18:50.621Z,90.25
2024-02-28T02:21:21.112Z,90.75
2024-02-28T02:23:47.698Z,90.93
2024-02-28T02:26:14.235Z,90.39
2024-02-28T02:28:40.921Z,90.39
2024-02-28T02:31:07.467Z,90.50
2024-02-28T02:33:34.174Z,90.63
2024-02-28T02:36:00.723Z,90.61
2024-02-28T02:38:27.252Z,90.40
2024-02-28T02:40:54.013Z,90.66
2024-02-28T02:43:20.561Z,90.81
2024-02-28T02:45:47.182Z,90.44
2024-02-28T02:48:13.693Z,90.58
2024-02-28T02:50:40.392Z,90.71
2024-02-28T02:53:10.802Z,90.79
2024-02-28T02:55:37.622Z,90.76
2024-02-28T02:58:04.394Z,90.76
2024-02-28T03:00:31.000Z,91.27
2024-02-28T03:02:57.596Z,90.89
2024-02-28T03:05:24.144Z,91.28
2024-02-28T03:07:50.672Z,91.05
2024-02-28T03:10:17.310Z,90.44
2024-02-28T03:12:43.991Z,90.70
2024-02-28T03:15:10.609Z,90.97
2024-02-28T03:17:37.172Z,90.73
2024-02-28T03:20:04.396Z,90.60
2024-02-28T03:22:30.883Z,90.96
2024-02-28T03:24:57.518Z,90.33
2024-02-28T03:27:24.071Z,90.48
2024-02-28T03:29:50.725Z,90.88
2024-02-28T03:32:17.210Z,90.60
2024-02-28T03:34:43.758Z,91.35
2024-02-28T03:37:10.258Z,91.19
2024-02-28T03:39:36.842Z,91.29
2024-02-28T03:42:03.541Z,91.44
2024-02-28T03:44:30.062Z,91.46
2024-02-28T03:46:56.646Z,91.33
2024-02-28T03:49:23.189Z,91.42
2024-02-28T03:51:49.759Z,90.92
2024-02-28T03:54:16.442Z,91.31
2024-02-28T03:56:43.037Z,91.79
2024-02-28T03:59:09.939Z,91.28
2024-02-28T04:01:36.532Z,91.47
2024-02-28T04:04:03.514Z,91.08
2024-02-28T04:06:30.410Z,91.42
2024-02-28T04:08:57.028Z,91.43
2024-02-28T04:11:23.627Z,91.54
2024-02-28T04:13:50.208Z,91.87
2024-02-28T04:16:16.742Z,91.53
2024-02-28T04:18:44.289Z,91.67
2024-02-28T04:21:10.875Z,91.39
2024-02-28T04:23:39.092Z,91.50
2024-02-28T04:26:05.625Z,91.52
2024-02-28T04:28:32.176Z,91.86
2024-02-28T04:30:58.801Z,92.04
2024-02-28T04:33:25.422Z,91.80
2024-02-28T04:35:51.963Z,91.96
2024-02-28T04:38:18.490Z,92.41
2024-02-28T04:40:45.257Z,92.52
2024-02-28T04:43:11.810Z,92.11
2024-02-28T04:45:38.595Z,92.13
2024-02-28T04:48:06.125Z,92.12
2024-02-28T04:50:32.840Z,92.64
2024-02-28T04:52:59.323Z,92.17
2024-02-28T04:55:25.905Z,91.97
2024-02-28T04:57:52.656Z,92.25
2024-02-28T05:00:19.460Z,92.34
2024-02-28T05:02:46.018Z,92.22
2024-02-28T05:05:12.546Z,92.47
2024-02-28T05:07:39.115Z,91.86
2024-02-28T05:10:06.495Z,92.62
2024-02-28T05:12:33.201Z,92.25
2024-02-28T05:14:59.810Z,92.22
2024-02-28T05:17:26.385Z,92.73
2024-02-28T05:19:53.026Z,92.76
2024-02-28T05:22:19.542Z,92.59
2024-02-28T05:24:49.393Z,92.68
2024-02-28T05:27:16.093Z,92.94
2024-02-28T05:29:43.838Z,92.69
2024-02-28T05:32:10.701Z,92.64
2024-02-28T05:34:37.260Z,92.45
2024-02-28T05:37:03.957Z,92.89
2024-02-28T05:39:31.962Z,93.00
2024-02-28T05:41:58.635Z,92.47
2024-02-28T05:44:25.733Z,92.62
2024-02-28T05:46:52.305Z,92.80
2024-02-28T05:49:18.954Z,92.51
2024-02-28T05:51:45.692Z,92.83
2024-02-28T05:54:12.369Z,92.62
2024-02-28T05:56:38.934Z,92.36
2024-02-28T05:59:05.493Z,92.56
2024-02-28T06:01:32.146Z,92.70
2024-02-28T06:03:59.416Z,92.36
2024-02-28T06:06:27.068Z,92.63
2024-02-28T06:08:53.707Z,92.42
2024-02-28T06:11:20.325Z,92.61
2024-02-28T06:13:46.930Z,92.52
2024-02-28T06:16:17.337Z,93.04
2024-02-28T06:18:43.930Z,92.55
2024-02-28T06:21:10.642Z,92.90
2024-02-28T06:23:37.364Z,93.14
2024-02-28T06:26:04.073Z,92.73
2024-02-28T06:28:30.707Z,92.88
2024-02-28T06:30:57.402Z,92.82
2024-02-28T06:33:24.119Z,93.41
2024-02-28T06:35:50.709Z,93.39
2024-02-28T06:38:17.252Z,93.37
2024-02-28T06:40:43.814Z,93.25
2024-02-28T06:43:10.626Z,93.19
2024-02-28T06:45:38.050Z,92.98
2024-02-28T06:48:06.152Z,93.69
2024-02-28T06:50:32.687Z,93.35
2024-02-28T06:52:59.230Z,93.55
2024-02-28T06:55:26.109Z,94.11
2024-02-28T06:57:52.840Z,93.71
2024-02-28T07:00:20.357Z,94.32
2024-02-28T07:02:47.079Z,94.78
2024-02-28T07:05:14.055Z,94.03
2024-02-28T07:07:40.953Z,95.06
2024-02-28T07:10:07.989Z,95.17
2024-02-28T07:12:34.667Z,95.71
2024-02-28T07:15:01.249Z,95.88
2024-02-28T07:17:27.835Z,95.10
2024-02-28T07:19:54.504Z,95.48
2024-02-28T07:22:22.369Z,96.34
2024-02-28T07:24:49.320Z,96.15
2024-02-28T07:27:16.950Z,95.51
2024-02-28T07:29:43.665Z,95.66
2024-02-28T07:32:10.226Z,95.60
2024-02-28T07:34:36.703Z,95.63
2024-02-28T07:37:03.614Z,95.71
2024-02-28T07:39:30.232Z,95.79
2024-02-28T07:41:57.139Z,96.36
2024-02-28T07:44:24.093Z,96.36
2024-02-28T07:46:52.317Z,96.42
2024-02-28T07:49:19.785Z,96.39
2024-02-28T07:51:46.770Z,96.03
2024-02-28T07:54:13.637Z,95.98
2024-02-28T07:56:40.190Z,96.75
2024-02-28T07:59:06.736Z,96.57
2024-02-28T08:01:33.573Z,96.09
2024-02-28T08:04:01.068Z,96.29
2024-02-28T08:06:27.869Z,96.52
2024-02-28T08:08:54.615Z,96.79
2024-02-28T08:11:21.423Z,96.27
2024-02-28T08:13:48.111Z,96.49
2024-02-28T08:16:14.861Z,96.08
2024-02-28T08:18:41.842Z,96.85
2024-02-28T08:21:10.145Z,96.23
2024-02-28T08:23:36.816Z,96.26
2024-02-28T08:26:04.938Z,96.66
2024-02-28T08:28:31.447Z,96.49
2024-02-28T08:30:59.611Z,96.59
2024-02-28T08:33:26.415Z,96.02
2024-02-28T08:35:53.279Z,96.27
2024-02-28T08:38:19.818Z,96.76
2024-02-28T08:40:46.825Z,96.16
2024-02-28T08:43:13.731Z,96.31
2024-02-28T08:45:40.686Z,96.53
2024-02-28T08:48:08.514Z,96.52
2024-02-28T08:50:35.319Z,96.87
2024-02-28T08:53:02.962Z,96.33
2024-02-28T08:55:30.307Z,96.87
2024-02-28T08:57:56.977Z,96.90
2024-02-28T09:00:23.839Z,96.98
2024-02-28T09:02:50.563Z,96.71
2024-02-28T09:05:17.391Z,96.84
2024-02-28T09:07:44.225Z,96.98
2024-02-28T09:10:12.194Z,97.25
2024-02-28T09:12:39.270Z,96.51
2024-02-28T09:15:06.449Z,96.71
2024-02-28T09:17:33.063Z,97.45
2024-02-28T09:20:02.064Z,96.96
2024-02-28T09:22:28.872Z,97.01
2024-02-28T09:24:55.633Z,97.07
2024-02-28T09:27:22.296Z,97.09
2024-02-28T09:29:48.828Z,96.86
2024-02-28T09:32:15.935Z,96.53
2024-02-28T09:34:42.884Z,96.31
2024-02-28T09:37:09.644Z,96.67
2024-02-28T09:39:39.823Z,96.45
2024-02-28T09:42:08.064Z,97.08
2024-02-28T09:44:35.779Z,96.51
2024-02-28T09:47:02.551Z,95.93
2024-02-28T09:49:32.150Z,96.40
2024-02-28T09:51:59.889Z,96.59
2024-02-28T09:54:26.877Z,96.36
2024-02-28T09:56:53.665Z,97.02
2024-02-28T09:59:23.332Z,96.73
2024-02-28T10:01:58.904Z,97.47
2024-02-28T10:04:29.048Z,97.21
2024-02-28T10:06:55.740Z,97.23
2024-02-28T10:09:22.369Z,97.19
2024-02-28T10:11:49.229Z,96.81
2024-02-28T10:14:20.094Z,97.13
2024-02-28T10:16:46.757Z,97.23
2024-02-28T10:19:14.060Z,96.75
2024-02-28T10:21:40.905Z,97.55
2024-02-28T10:24:07.763Z,97.22
2024-02-28T10:26:43.140Z,96.63
2024-02-28T10:29:12.271Z,96.89
2024-02-28T10:31:39.025Z,96.78
2024-02-28T10:34:06.287Z,97.22
2024-02-28T10:36:33.921Z,97.41
2024-02-28T10:39:01.341Z,97.37
2024-02-28T10:41:29.413Z,97.24
2024-02-28T10:43:56.015Z,97.02
2024-02-28T10:46:35.187Z,97.63
2024-02-28T10:49:03.975Z,97.87
2024-02-28T10:51:36.844Z,97.70
2024-02-28T10:54:13.860Z,97.71
2024-02-28T10:56:43.039Z,97.02
2024-02-28T10:59:12.398Z,97.52
2024-02-28T11:01:45.460Z,97.15
2024-02-28T11:04:14.278Z,96.92
2024-02-28T11:06:52.323Z,96.78
2024-02-28T11:09:23.733Z,95.88
2024-02-28T11:11:54.131Z,95.46
2024-02-28T11:14:23.504Z,96.31
2024-02-28T11:17:01.309Z,95.04
2024-02-28T11:19:30.675Z,95.65
2024-02-28T11:21:58.337Z,95.44
2024-02-28T11:24:29.904Z,95.45
2024-02-28T11:26:56.460Z,94.78
2024-02-28T11:29:28.413Z,94.44
2024-02-28T11:31:55.283Z,94.94
2024-02-28T11:34:22.565Z,95.28
2024-02-28T11:36:54.279Z,94.54
2024-02-28T11:39:22.423Z,94.64
2024-02-28T11:41:49.886Z,94.50
2024-02-28T11:44:17.828Z,95.02
2024-02-28T11:46:48.452Z,94.68
2024-02-28T11:49:15.479Z,94.37
2024-02-28T11:51:43.679Z,94.12
2024-02-28T11:54:14.033Z,94.13
2024-02-28T11:56:41.423Z,93.73
2024-02-28T11:59:10.388Z,93.30
2024-02-28T12:01:43.220Z,93.57
2024-02-28T12:04:11.424Z,93.49
2024-02-28T12:06:39.282Z,93.74
2024-02-28T12:09:10.172Z,93.52
2024-02-28T12:11:38.422Z,94.16
2024-02-28T12:14:08.076Z,94.15
2024-02-28T12:16:34.631Z,93.90
2024-02-28T12:19:01.398Z,93.81
2024-02-28T12:21:28.483Z,94.10
2024-02-28T12:23:57.303Z,94.36
2024-02-28T12:26:23.862Z,94.79
2024-02-28T12:28:50.365Z,94.94
2024-02-28T12:31:17.033Z,95.14
2024-02-28T12:33:43.764Z,94.77
2024-02-28T12:36:10.480Z,95.23
2024-02-28T12:38:37.254Z,95.33
2024-02-28T12:41:04.925Z,95.66
2024-02-28T12:43:33.005Z,95.55
2024-02-28T12:46:00.341Z,95.62
2024-02-28T12:48:27.023Z,95.44
2024-02-28T12:50:53.668Z,95.79
2024-02-28T12:53:20.192Z,95.71
2024-02-28T12:55:46.696Z,95.38
2024-02-28T12:58:13.275Z,95.28
2024-02-28T13:00:39.925Z,94.89
2024-02-28T13:03:07.275Z,95.48
2024-02-28T13:05:33.942Z,95.30
2024-02-28T13:08:00.613Z,94.86
2024-02-28T13:10:27.306Z,94.50
2024-02-28T13:12:54.225Z,94.38
2024-02-28T13:15:21.043Z,94.78
2024-02-28T13:17:50.864Z,94.75
2024-02-28T13:20:18.001Z,94.73
2024-02-28T13:22:45.121Z,94.71
2024-02-28T13:25:13.160Z,94.99
2024-02-28T13:27:39.869Z,95.03
2024-02-28T13:30:07.149Z,95.41
2024-02-28T13:32:34.072Z,95.63
2024-02-28T13:35:01.364Z,95.43
2024-02-28T13:37:28.105Z,95.78
2024-02-28T13:39:54.694Z,95.43
2024-02-28T13:42:21.374Z,95.09
2024-02-28T13:44:47.951Z,95.28
2024-02-28T13:47:15.388Z,94.99
2024-02-28T13:49:42.020Z,95.46
2024-02-28T13:52:08.942Z,95.03
2024-02-28T13:54:36.385Z,95.60
2024-02-28T13:57:03.129Z,95.58
2024-02-28T13:59:29.646Z,95.82
2024-02-28T14:01:56.717Z,95.51
2024-02-28T14:04:23.371Z,96.04
2024-02-28T14:06:50.479Z,95.81
2024-02-28T14:09:17.632Z,95.65
2024-02-28T14:11:45.209Z,95.74
2024-02-28T14:14:13.464Z,96.43
2024-02-28T14:16:40.034Z,95.69
2024-02-28T14:19:06.634Z,96.12
2024-02-28T14:21:34.333Z,95.26
2024-02-28T14:24:01.016Z,95.80
2024-02-28T14:26:28.118Z,95.73
2024-02-28T14:28:56.279Z,95.81
2024-02-28T14:31:24.455Z,95.91
2024-02-28T14:33:51.366Z,96.04
2024-02-28T14:36:18.115Z,96.04
2024-02-28T14:38:45.505Z,95.63
2024-02-28T14:41:12.835Z,95.56
2024-02-28T14:43:40.116Z,95.49
2024-02-28T14:46:08.424Z,95.59
2024-02-28T14:48:35.161Z,95.00
2024-02-28T14:51:03.504Z,95.66
2024-02-28T14:53:30.102Z,94.86
2024-02-28T14:55:56.700Z,95.04
2024-02-28T14:58:23.272Z,94.83
2024-02-28T15:00:50.598Z,95.07
2024-02-28T15:03:17.687Z,94.82
2024-02-28T15:05:45.103Z,95.29
2024-02-28T15:08:12.236Z,94.59
2024-02-28T15:10:38.893Z,94.71
2024-02-28T15:13:07.318Z,94.60
2024-02-28T15:15:33.997Z,94.63
2024-02-28T15:18:01.898Z,95.42
2024-02-28T15:20:28.464Z,95.54
2024-02-28T15:22:56.241Z,95.78
2024-02-28T15:25:22.890Z,95.94
2024-02-28T15:27:49.443Z,95.59
2024-02-28T15:30:16.080Z,95.90
2024-02-28T15:32:43.497Z,95.76
2024-02-28T15:35:11.646Z,95.77
2024-02-28T15:37:38.468Z,95.89
2024-02-28T15:40:09.552Z,96.17
2024-02-28T15:42:36.838Z,96.28
2024-02-28T15:45:03.601Z,96.45
2024-02-28T15:47:33.501Z,96.35
2024-02-28T15:50:00.953Z,96.66
2024-02-28T15:52:28.670Z,96.89
2024-02-28T15:54:55.359Z,96.58
2024-02-28T15:57:21.971Z,96.20
2024-02-28T15:59:48.569Z,96.72
2024-02-28T16:02:15.256Z,97.04
2024-02-28T16:04:41.840Z,97.06
2024-02-28T16:07:10.229Z,96.94
2024-02-28T16:09:40.127Z,97.27
2024-02-28T16:12:10.538Z,97.66
2024-02-28T16:14:37.106Z,97.98
2024-02-28T16:17:03.759Z,97.66
2024-02-28T16:19:30.431Z,97.33
2024-02-28T16:21:57.278Z,98.05
2024-02-28T16:24:24.128Z,97.59
2024-02-28T16:26:50.908Z,97.99
2024-02-28T16:29:17.495Z,98.10
2024-02-28T16:31:49.411Z,98.38
2024-02-28T16:34:16.162Z,98.87
2024-02-28T16:36:43.047Z,99.10
2024-02-28T16:39:09.682Z,98.91
2024-02-28T16:41:36.483Z,98.87
2024-02-28T16:44:04.558Z,99.55
2024-02-28T16:46:31.308Z,99.90
2024-02-28T16:48:57.966Z,99.77
2024-02-28T16:51:24.696Z,100.00
2024-02-28T16:53:51.327Z,99.84
2024-02-28T16:56:17.843Z,99.88
2024-02-28T16:58:44.481Z,99.87
2024-02-28T17:01:11.385Z,100.00
2024-02-28T17:03:38.456Z,100.00
2024-02-28T17:06:06.033Z,100.00
2024-02-28T17:08:36.095Z,100.00
2024-02-28T17:11:04.409Z,100.00
2024-02-28T17:13:31.007Z,100.00
2024-02-28T17:16:03.396Z,100.00
2024-02-28T17:18:31.537Z,100.00
2024-02-28T17:20:58.721Z,100.00
2024-02-28T17:23:26.605Z,100.00
2024-02-28T17:25:56.431Z,100.00
2024-02-28T17:28:23.346Z,100.00
2024-02-28T17:30:49.910Z,100.00
2024-02-28T17:33:16.650Z,100.00
2024-02-28T17:35:44.963Z,100.00
2024-02-28T17:38:11.613Z,100.00
2024-02-28T17:40:38.229Z,100.00
2024-02-28T17:43:05.440Z,100.00
2024-02-28T17:45:32.151Z,100.00
2024-02-28T17:47:58.884Z,100.00
2024-02-28T17:50:26.113Z,100.00
2024-02-28T17:52:52.873Z,100.00
2024-02-28T17:55:19.631Z,100.00
2024-02-28T17:57:47.370Z,100.00
2024-02-28T18:00:14.497Z,100.00
2024-02-28T18:02:42.336Z,100.00
2024-02-28T18:05:10.268Z,100.00
2024-02-28T18:07:37.150Z,100.00
2024-02-28T18:10:07.995Z,100.00
2024-02-28T18:12:34.823Z,100.00
2024-02-28T18:15:01.524Z,100.00
2024-02-28T18:17:29.395Z,100.00
2024-02-28T18:19:56.289Z,100.00
2024-02-28T18:22:22.817Z,100.00
2024-02-28T18:24:49.522Z,100.00
2024-02-28T18:27:16.199Z,100.00
2024-02-28T18:29:43.042Z,100.00
2024-02-28T18:32:09.645Z,100.00
2024-02-28T18:34:36.293Z,100.00
2024-02-28T18:37:03.202Z,100.00
2024-02-28T18:39:29.915Z,100.00
2024-02-28T18:41:56.863Z,100.00
2024-02-28T18:44:23.450Z,100.00
2024-02-28T18:46:49.970Z,100.00
2024-02-28T18:49:16.939Z,100.00
2024-02-28T18:51:43.858Z,100.00
2024-02-28T18:54:10.432Z,100.00
2024-02-28T18:56:37.003Z,100.00
2024-02-28T18:59:03.604Z,100.00
2024-02-28T19:01:30.271Z,100.00
2024-02-28T19:03:57.531Z,100.00
2024-02-28T19:06:25.640Z,100.00
2024-02-28T19:08:53.626Z,100.00
2024-02-28T19:11:20.882Z,100.00
2024-02-28T19:13:47.675Z,100.00
2024-02-28T19:16:14.958Z,100.00
2024-02-28T19:18:42.878Z,100.00
2024-02-28T19:21:09.546Z,100.00
2024-02-28T19:23:38.051Z,100.00
2024-02-28T19:26:04.880Z,100.00
2024-02-28T19:28:31.405Z,100.00
2024-02-28T19:31:01.168Z,100.00
2024-02-28T19:33:28.168Z,100.00
2024-02-28T19:35:54.875Z,100.00
2024-02-28T19:38:21.474Z,100.00
2024-02-28T19:40:48.016Z,100.00
2024-02-28T19:43:15.809Z,100.00
2024-02-28T19:45:42.822Z,100.00
2024-02-28T19:48:09.605Z,100.00
2024-02-28T19:50:36.399Z,100.00
2024-02-28T19:53:03.292Z,100.00
2024-02-28T19:55:29.830Z,100.00
2024-02-28T19:57:56.414Z,100.00
2024-02-28T20:00:23.106Z,100.00
2024-02-28T20:02:49.737Z,100.00
2024-02-28T20:05:19.555Z,100.00
2024-02-28T20:07:47.863Z,100.00
2024-02-28T20:10:16.349Z,100.00
2024-02-28T20:12:43.159Z,100.00
2024-02-28T20:15:10.058Z,100.00
2024-02-28T20:17:36.802Z,100.00
2024-02-28T20:20:04.544Z,100.00
2024-02-28T20:22:31.027Z,100.00
2024-02-28T20:24:57.898Z,100.00
2024-02-28T20:27:24.605Z,100.00
2024-02-28T20:29:51.237Z,100.00
2024-02-28T20:32:19.349Z,100.00
2024-02-28T20:34:45.987Z,100.00
2024-02-28T20:37:12.685Z,100.00
2024-02-28T20:39:40.394Z,99.93
2024-02-28T20:42:07.250Z,100.00
2024-02-28T20:44:33.906Z,100.00
2024-02-28T20:47:00.483Z,100.00
2024-02-28T20:49:27.118Z,100.00
2024-02-28T20:51:53.733Z,100.00
2024-02-28T20:54:20.445Z,100.00
2024-02-28T20:56:48.061Z,100.00
2024-02-28T20:59:15.576Z,100.00
2024-02-28T21:01:42.298Z,100.00
2024-02-28T21:04:09.663Z,100.00
2024-02-28T21:06:36.563Z,100.00
2024-02-28T21:09:03.718Z,100.00
2024-02-28T21:11:30.442Z,100.00
2024-02-28T21:13:57.682Z,100.00
2024-02-28T21:16:24.813Z,100.00
2024-02-28T21:18:52.332Z,100.00
2024-02-28T21:21:23.475Z,100.00
2024-02-28T21:23:50.156Z,100.00
2024-02-28T21:26:16.850Z,100.00
2024-02-28T21:28:43.608Z,100.00
2024-02-28T21:31:10.265Z,100.00
2024-02-28T21:33:37.081Z,100.00
2024-02-28T21:36:03.872Z,100.00
2024-02-28T21:38:30.720Z,100.00
2024-02-28T21:40:57.458Z,100.00
2024-02-28T21:43:24.174Z,100.00
2024-02-28T21:45:50.947Z,100.00
2024-02-28T21:48:17.574Z,100.00
2024-02-28T21:50:44.230Z,100.00
2024-02-28T21:53:11.102Z,100.00
2024-02-28T21:55:37.799Z,100.00
2024-02-28T21:58:05.048Z,100.00
2024-02-28T22:00:32.130Z,100.00
2024-02-28T22:02:58.788Z,100.00
2024-02-28T22:05:25.357Z,100.00
2024-02-28T22:07:51.987Z,100.00
2024-02-28T22:10:18.681Z,100.00
2024-02-28T22:12:45.495Z,100.00
2024-02-28T22:15:12.322Z,100.00
2024-02-28T22:17:39.083Z,100.00
2024-02-28T22:20:06.936Z,100.00
2024-02-28T22:22:33.555Z,100.00
2024-02-28T22:25:00.234Z,100.00
2024-02-28T22:27:27.211Z,100.00
2024-02-28T22:29:54.746Z,100.00
2024-02-28T22:32:22.196Z,100.00
2024-02-28T22:34:48.823Z,100.00
2024-02-28T22:37:15.551Z,100.00
2024-02-28T22:39:42.305Z,100.00
2024-02-28T22:42:08.900Z,100.00
2024-02-28T22:44:35.449Z,100.00
2024-02-28T22:47:01.959Z,100.00
2024-02-28T22:49:29.172Z,100.00
2024-02-28T22:51:55.802Z,100.00
2024-02-28T22:54:24.074Z,100.00
2024-02-28T22:56:50.873Z,100.00
2024-02-28T22:59:18.404Z,100.00
2024-02-28T23:01:46.299Z,100.00
2024-02-28T23:04:13.183Z,100.00
2024-02-28T23:06:41.026Z,100.00
2024-02-28T23:09:07.735Z,100.00
2024-02-28T23:11:34.910Z,100.00
2024-02-28T23:14:02.224Z,100.00
2024-02-28T23:16:29.935Z,100.00
2024-02-28T23:18:56.921Z,100.00
2024-02-28T23:21:23.876Z,100.00
2024-02-28T23:23:50.496Z,100.00
2024-02-28T23:26:17.130Z,100.00
2024-02-28T23:28:44.097Z,100.00
2024-02-28T23:31:10.710Z,100.00
2024-02-28T23:33:37.532Z,100.00
2024-02-28T23:36:04.780Z,100.00
2024-02-28T23:38:31.491Z,100.00
2024-02-28T23:40:58.011Z,100.00
2024-02-28T23:43:25.458Z,100.00
2024-02-28T23:45:52.048Z,100.00
2024-02-28T23:48:18.600Z,100.00
2024-02-28T23:50:52.916Z,100.00
2024-02-28T23:53:20.380Z,100.00
2024-02-28T23:55:47.073Z,100.00
2024-02-28T23:58:13.972Z,100.00
